createdAt,value
2019-01-25T00:00:15.376Z,15.5
2019-01-25T00:05:17.822Z,15.5
2019-01-25T00:10:20.285Z,18.7
2019-01-25T00:15:22.745Z,17.4
2019-01-25T00:20:25.196Z,18.7
2019-01-25T00:25:27.658Z,20.3
2019-01-25T00:30:30.126Z,21.4
2019-01-25T00:35:32.686Z,21.8
2019-01-25T00:40:35.022Z,22.3
2019-01-25T00:45:37.481Z,22.7
2019-01-25T00:50:39.943Z,28.3
2019-01-25T00:55:42.394Z,26.3
2019-01-25T01:00:44.863Z,26.4
2019-01-25T01:05:47.355Z,26.3
2019-01-25T01:10:49.773Z,27.6
2019-01-25T01:15:52.217Z,27.5
2019-01-25T01:20:54.692Z,28
2019-01-25T01:25:57.146Z,28.3
2019-01-25T01:30:59.623Z,28.3
2019-01-25T01:36:02.066Z,26.8
2019-01-25T01:41:04.523Z,27.5
2019-01-25T01:46:07.047Z,26.3
2019-01-25T01:51:09.458Z,28.3
2019-01-25T01:56:11.890Z,28.8
2019-01-25T02:01:14.340Z,29.3
2019-01-25T02:06:16.793Z,28.8
2019-01-25T02:11:19.268Z,29.9
2019-01-25T02:16:21.708Z,29.4
2019-01-25T02:21:24.160Z,31.1
2019-01-25T02:26:26.651Z,31.2
2019-01-25T02:31:29.074Z,30.9
2019-01-25T02:36:31.534Z,35.2
2019-01-25T02:41:34.031Z,37.9
2019-01-25T02:46:36.438Z,40.8
2019-01-25T02:51:38.922Z,44.1
2019-01-25T02:56:41.374Z,48
2019-01-25T03:01:43.876Z,48.9
2019-01-25T03:06:46.330Z,49.8
2019-01-25T03:11:48.727Z,50.3
2019-01-25T03:16:51.183Z,50
2019-01-25T03:21:53.668Z,49.8
2019-01-25T03:26:56.095Z,52.7
2019-01-25T03:32:03.601Z,55.8
2019-01-25T03:37:01.003Z,58.1
2019-01-25T03:42:03.470Z,64
2019-01-25T03:47:05.941Z,69.1
2019-01-25T03:52:08.388Z,69.4
2019-01-25T03:57:10.838Z,70.3
2019-01-25T04:02:13.297Z,69.4
2019-01-25T04:07:15.751Z,70.6
2019-01-25T04:12:18.202Z,69.6
2019-01-25T04:17:20.651Z,68.8
2019-01-25T04:22:23.111Z,69
2019-01-25T04:27:25.578Z,68.3
2019-01-25T04:32:28.026Z,69
2019-01-25T04:37:30.473Z,66.7
2019-01-25T04:42:33.057Z,65.9
2019-01-25T04:47:35.401Z,67
2019-01-25T04:52:37.872Z,66.4
2019-01-25T04:57:40.361Z,65.5
2019-01-25T05:02:42.841Z,65.7
2019-01-25T05:07:45.216Z,67.2
2019-01-25T05:12:52.942Z,68
2019-01-25T05:17:50.142Z,68.4
2019-01-25T05:22:52.618Z,70.6
2019-01-25T05:27:55.132Z,70.2
2019-01-25T05:32:57.557Z,67.7
2019-01-25T05:37:59.977Z,64.1
2019-01-25T05:43:02.522Z,66
2019-01-25T05:48:04.888Z,67
2019-01-25T05:53:07.415Z,70.1
2019-01-25T05:58:09.788Z,73.1
2019-01-25T06:03:12.275Z,75.5
2019-01-25T06:08:14.701Z,84.5
2019-01-25T06:13:17.213Z,89.3
2019-01-25T06:18:19.639Z,90.5
2019-01-25T06:23:22.088Z,92
2019-01-25T06:28:24.534Z,91.5
2019-01-25T06:33:27.008Z,90.7
2019-01-25T06:38:29.455Z,90.1
2019-01-25T06:43:31.908Z,88.8
2019-01-25T06:53:36.816Z,86.3
2019-01-25T06:58:39.283Z,85.4
2019-01-25T07:03:41.745Z,85.2
2019-01-25T07:08:44.196Z,84.5
2019-01-25T07:13:46.642Z,83.6
2019-01-25T07:18:49.101Z,83.9
2019-01-25T07:23:51.555Z,84
2019-01-25T07:28:54.091Z,85
2019-01-25T07:33:56.523Z,80.5
2019-01-25T07:38:58.992Z,81.1
2019-01-25T07:44:01.390Z,82.8
2019-01-25T07:49:03.916Z,81.9
2019-01-25T07:54:06.342Z,76.8
2019-01-25T07:59:08.782Z,74.9
2019-01-25T08:04:11.203Z,75.1
2019-01-25T08:09:13.675Z,75.1
2019-01-25T08:14:16.175Z,71
2019-01-25T08:19:18.605Z,62.4
2019-01-25T08:24:21.038Z,55.3
2019-01-25T08:29:27.822Z,45
2019-01-25T08:34:25.965Z,36.5
2019-01-25T08:39:28.408Z,25.3
2019-01-25T08:44:30.870Z,16.6
2019-01-25T08:49:33.348Z,6.3
2019-01-25T08:54:35.779Z,1
2019-01-25T08:59:38.250Z,1
2019-01-25T09:04:40.715Z,1
2019-01-25T09:09:43.184Z,1
2019-01-25T09:14:45.616Z,1
2019-01-25T09:19:48.133Z,1
2019-01-25T09:24:50.618Z,1
2019-01-25T09:29:53.063Z,1
2019-01-25T09:34:55.460Z,1
2019-01-25T09:39:57.957Z,1
2019-01-25T09:45:00.398Z,1
2019-01-25T09:50:02.934Z,1
2019-01-25T09:55:05.398Z,1
2019-01-25T10:00:07.831Z,1
2019-01-25T10:05:10.252Z,1
2019-01-25T10:10:12.798Z,1
2019-01-25T10:15:15.194Z,1
2019-01-25T10:20:17.693Z,1
2019-01-25T10:25:20.099Z,1
2019-01-25T10:30:22.572Z,1
2019-01-25T10:35:25.020Z,1
2019-01-25T10:40:27.492Z,1
2019-01-25T10:45:29.977Z,1
2019-01-25T10:50:32.513Z,1
2019-01-25T10:55:34.897Z,1
2019-01-25T11:00:37.385Z,1
2019-01-25T11:05:39.823Z,1
2019-01-25T11:10:42.295Z,1
2019-01-25T11:15:44.788Z,1
2019-01-25T11:20:47.220Z,1
2019-01-25T11:25:49.679Z,1
2019-01-25T11:30:52.146Z,1
2019-01-25T11:35:54.591Z,1
2019-01-25T11:40:57.059Z,1
2019-01-25T11:45:59.527Z,1
2019-01-25T11:51:07.002Z,1
2019-01-25T11:56:04.445Z,1
2019-01-25T12:01:06.932Z,1
2019-01-25T12:06:09.469Z,1
2019-01-25T12:11:11.885Z,1
2019-01-25T12:16:14.367Z,1
2019-01-25T12:21:16.847Z,1
2019-01-25T12:26:19.287Z,1
2019-01-25T12:31:21.723Z,1
2019-01-25T12:36:24.215Z,1
2019-01-25T12:41:26.622Z,1
2019-01-25T12:46:29.082Z,1
2019-01-25T12:51:31.540Z,1
2019-01-25T12:56:34.037Z,1
2019-01-25T13:01:36.452Z,1
2019-01-25T13:06:38.919Z,1
2019-01-25T13:11:41.375Z,1
2019-01-25T13:16:43.815Z,1
2019-01-25T13:21:46.452Z,1
2019-01-25T13:26:48.758Z,1
2019-01-25T13:31:51.226Z,1
2019-01-25T13:36:57.073Z,1
2019-01-25T13:41:56.142Z,1
2019-01-25T13:46:58.579Z,1
2019-01-25T13:52:01.033Z,1
2019-01-25T13:57:03.540Z,1
2019-01-25T14:02:05.951Z,1
2019-01-25T14:07:08.409Z,1
2019-01-25T14:12:10.871Z,1
2019-01-25T14:17:13.335Z,1
2019-01-25T14:22:15.790Z,1
2019-01-25T14:27:18.245Z,1
2019-01-25T14:32:20.696Z,1
2019-01-25T14:37:23.177Z,1
2019-01-25T14:42:25.674Z,1
2019-01-25T14:47:28.108Z,1
2019-01-25T14:52:30.626Z,1
2019-01-25T14:57:32.965Z,1
2019-01-25T15:02:35.442Z,1
2019-01-25T15:07:37.955Z,1
2019-01-25T15:12:40.352Z,1
2019-01-25T15:17:42.808Z,1
2019-01-25T15:22:45.254Z,1
2019-01-25T15:32:50.189Z,1
2019-01-25T15:37:52.665Z,1
2019-01-25T15:42:55.114Z,1
2019-01-25T15:47:57.542Z,1
2019-01-25T15:52:59.986Z,1
2019-01-25T15:58:02.518Z,1
2019-01-25T16:03:04.917Z,1
2019-01-25T16:08:07.402Z,1
2019-01-25T16:13:09.826Z,1
2019-01-25T16:18:12.277Z,1
2019-01-25T16:23:14.762Z,1
2019-01-25T16:28:17.202Z,1
2019-01-25T16:33:19.650Z,1
2019-01-25T16:38:22.131Z,1
2019-01-25T16:43:24.588Z,1
2019-01-25T16:48:27.037Z,1
2019-01-25T16:53:29.468Z,1
2019-01-25T16:58:32.016Z,1
2019-01-25T17:03:34.405Z,1
2019-01-25T17:08:36.868Z,1
2019-01-25T17:13:39.299Z,1
2019-01-25T17:18:41.757Z,1
2019-01-25T17:23:44.228Z,1
2019-01-25T17:28:46.708Z,1
2019-01-25T17:33:49.145Z,1
2019-01-25T17:38:51.595Z,1
2019-01-25T17:43:54.077Z,1
2019-01-25T17:48:56.490Z,1
2019-01-25T17:53:58.951Z,1
2019-01-25T17:59:01.476Z,1
2019-01-25T18:04:03.870Z,1
2019-01-25T18:09:06.353Z,1
2019-01-25T18:14:08.882Z,1
2019-01-25T18:19:11.270Z,1
2019-01-25T18:24:13.715Z,1
2019-01-25T18:29:16.314Z,1
2019-01-25T18:34:18.660Z,1
2019-01-25T18:39:21.065Z,1
2019-01-25T18:44:23.534Z,1
2019-01-25T18:49:25.975Z,1
2019-01-25T18:54:28.432Z,1
2019-01-25T18:59:30.904Z,1
2019-01-25T19:04:33.389Z,1
2019-01-25T19:09:35.894Z,1
2019-01-25T19:14:38.265Z,1
2019-01-25T19:19:40.737Z,1
2019-01-25T19:24:43.175Z,1
2019-01-25T19:29:45.930Z,1
2019-01-25T19:34:48.126Z,1
2019-01-25T19:39:50.558Z,1
2019-01-25T19:44:52.997Z,1
2019-01-25T19:49:55.459Z,1
2019-01-25T19:54:57.922Z,1
2019-01-25T20:00:00.404Z,1
2019-01-25T20:05:02.852Z,1
2019-01-25T20:10:05.288Z,1
2019-01-25T20:15:07.765Z,1
2019-01-25T20:20:10.293Z,1
2019-01-25T20:25:12.704Z,1
2019-01-25T20:30:15.207Z,1
2019-01-25T20:35:17.659Z,1
2019-01-25T20:40:20.053Z,1
2019-01-25T20:45:26.988Z,1
2019-01-25T20:50:25.001Z,1
2019-01-25T20:55:27.440Z,1
2019-01-25T21:05:32.345Z,1
2019-01-25T21:10:34.762Z,1
2019-01-25T21:15:37.335Z,1
2019-01-25T21:20:39.670Z,1
2019-01-25T21:25:42.182Z,1
2019-01-25T21:30:44.597Z,1
2019-01-25T21:35:47.065Z,1
2019-01-25T21:40:49.499Z,1
2019-01-25T21:45:51.976Z,1
2019-01-25T21:50:54.407Z,1
2019-01-25T21:55:56.874Z,1
2019-01-25T22:00:59.343Z,1
2019-01-25T22:06:01.835Z,1
2019-01-25T22:11:04.253Z,1
2019-01-25T22:16:07.034Z,1
2019-01-25T22:21:09.158Z,1
2019-01-25T22:26:11.617Z,1
2019-01-25T22:31:14.066Z,1
2019-01-25T22:36:16.527Z,1
2019-01-25T22:41:19.004Z,1
2019-01-25T22:46:21.447Z,1
2019-01-25T22:51:24.014Z,1
2019-01-25T22:56:26.384Z,1
2019-01-25T23:01:28.833Z,1
2019-01-25T23:06:31.336Z,1
2019-01-25T23:11:33.740Z,1
2019-01-25T23:16:36.212Z,1
2019-01-25T23:21:38.656Z,1
2019-01-25T23:26:41.105Z,1
2019-01-25T23:31:43.581Z,1
2019-01-25T23:36:46.020Z,5
2019-01-25T23:41:48.495Z,18.7
2019-01-25T23:46:50.937Z,45.9
2019-01-25T23:51:53.398Z,76.6
2019-01-25T23:56:55.873Z,95.7
